Time;durP1;ratioP1;P1;durP2;ratioP2;P2;SDS_P1;SDS_P2;PMS_P1;PMS_P2;Temp;Humidity;BMP_temperature;BMP_pressure;BME280_temperature;BME280_humidity;BME280_pressure;Samples;Min_cycle;Max_cycle;Signal;HPM_P1;HPM_P2
2023/04/30 00:01:03;;;;;;;12.80;8.93;;;;;;;13.29;62.43;101031.72;4106218;28;20124;-62
2023/04/30 00:03:06;;;;;;;12.20;8.43;;;;;;;13.21;62.58;101034.22;4103574;28;20125;-62
2023/04/30 00:05:09;;;;;;;13.18;9.98;;;;;;;13.24;62.84;101039.50;4112115;28;20512;-62
2023/04/30 00:07:13;;;;;;;10.88;8.70;;;;;;;13.26;62.46;101037.78;4109549;28;20031;-62
2023/04/30 00:09:16;;;;;;;13.10;8.68;;;;;;;13.39;62.01;101037.94;4111080;28;20231;-62
2023/04/30 00:11:20;;;;;;;10.40;8.43;;;;;;;13.27;62.21;101042.16;4108954;28;20086;-62
2023/04/30 00:13:23;;;;;;;11.88;7.97;;;;;;;13.23;62.43;101040.34;4104737;28;20106;-62
2023/04/30 00:15:26;;;;;;;10.63;7.80;;;;;;;13.12;63.08;101046.28;4106863;28;20118;-62
2023/04/30 00:17:28;;;;;;;13.55;8.45;;;;;;;13.14;63.22;101050.69;4107901;28;20382;-62
2023/04/30 00:19:31;;;;;;;12.20;9.10;;;;;;;13.13;63.09;101043.69;4099138;28;20472;-62
2023/04/30 00:21:35;;;;;;;10.05;7.72;;;;;;;13.13;63.51;101045.41;4115731;28;20043;-62
2023/04/30 00:23:37;;;;;;;9.50;7.78;;;;;;;13.14;63.63;101041.97;4100293;28;20046;-62
2023/04/30 00:25:40;;;;;;;9.70;7.40;;;;;;;13.16;64.05;101048.97;4103037;28;20066;-63
2023/04/30 00:27:44;;;;;;;12.68;9.13;;;;;;;13.19;64.30;101051.59;4105826;28;20039;-62
2023/04/30 00:29:47;;;;;;;14.18;10.00;;;;;;;13.24;63.38;101047.34;4108838;28;20035;-63
2023/04/30 00:31:50;;;;;;;11.65;8.93;;;;;;;13.26;62.99;101053.44;4128678;28;20050;-63
2023/04/30 00:33:53;;;;;;;10.15;8.20;;;;;;;13.24;63.50;101062.09;4121499;28;20070;-62
2023/04/30 00:35:56;;;;;;;13.77;10.57;;;;;;;13.32;63.25;101054.41;4114463;28;20050;-64
2023/04/30 00:37:59;;;;;;;12.95;9.23;;;;;;;13.27;63.03;101049.97;4120686;28;20046;-61
2023/04/30 00:40:02;;;;;;;12.90;9.85;;;;;;;13.34;62.37;101057.88;4123129;28;20125;-62
2023/04/30 00:42:05;;;;;;;12.85;9.75;;;;;;;13.22;62.64;101056.88;4111053;28;20062;-62
2023/04/30 00:44:09;;;;;;;14.18;10.23;;;;;;;13.27;62.19;101052.59;4110799;28;20162;-63
2023/04/30 00:46:12;;;;;;;14.32;9.90;;;;;;;13.21;62.50;101055.09;4116843;28;20045;-63
2023/04/30 00:48:16;;;;;;;11.70;10.30;;;;;;;13.15;62.31;101049.81;4104343;28;20216;-65
2023/04/30 00:50:18;;;;;;;16.77;10.40;;;;;;;13.09;62.67;101049.72;4122827;28;20073;-63
2023/04/30 00:52:21;;;;;;;13.60;10.73;;;;;;;13.08;62.65;101053.19;4126864;28;20264;-63
2023/04/30 00:54:25;;;;;;;12.60;10.45;;;;;;;13.05;62.59;101050.53;4127871;28;20408;-64
2023/04/30 00:56:29;;;;;;;12.82;9.88;;;;;;;13.11;62.30;101045.41;4100782;28;20071;-62
2023/04/30 00:58:32;;;;;;;14.82;10.70;;;;;;;13.07;62.55;101051.47;4102037;28;20593;-62
2023/04/30 01:00:37;;;;;;;15.90;9.88;;;;;;;13.00;62.33;101047.00;4105340;28;20051;-62
2023/04/30 01:02:40;;;;;;;15.75;10.07;;;;;;;12.93;62.63;101054.72;4108180;28;20520;-63
2023/04/30 01:04:43;;;;;;;13.10;9.68;;;;;;;12.93;62.92;101046.91;4108807;28;20141;-62
2023/04/30 01:06:46;;;;;;;14.50;9.90;;;;;;;12.89;63.22;101050.34;4105670;28;20134;-63
2023/04/30 01:08:49;;;;;;;12.68;9.93;;;;;;;12.95;62.94;101048.66;4101644;28;20047;-62
2023/04/30 01:11:04;;;;;;;16.33;10.13;;;;;;;12.98;62.74;101048.69;4118987;28;20066;-62
2023/04/30 01:13:13;;;;;;;12.70;9.73;;;;;;;12.96;63.11;101053.91;4126278;28;20046;-62
2023/04/30 01:15:22;;;;;;;11.13;9.13;;;;;;;12.93;63.01;101054.72;4124538;28;20034;-62
2023/04/30 01:17:33;;;;;;;11.80;9.00;;;;;;;12.92;63.79;101060.81;4127739;28;20125;-62
2023/04/30 01:19:42;;;;;;;8.95;7.32;;;;;;;12.89;65.01;101060.78;4123013;28;20053;-63
2023/04/30 01:21:45;;;;;;;11.93;8.25;;;;;;;12.93;64.65;101051.25;4101703;28;20050;-62
2023/04/30 01:24:03;;;;;;;13.90;10.27;;;;;;;13.05;63.81;101055.75;4126088;28;20043;-62
2023/04/30 01:26:13;;;;;;;14.82;10.70;;;;;;;13.04;63.19;101049.69;4117630;28;20035;-62
2023/04/30 01:28:19;;;;;;;14.85;10.65;;;;;;;13.02;62.93;101050.50;4118204;28;20162;-63
2023/04/30 01:30:24;;;;;;;15.05;10.38;;;;;;;13.01;62.92;101041.81;4114805;28;20102;-62
2023/04/30 01:32:27;;;;;;;15.10;10.02;;;;;;;13.00;62.73;101050.50;4116152;28;20102;-63
2023/04/30 01:34:30;;;;;;;14.82;10.98;;;;;;;13.01;62.53;101046.13;4116452;28;20035;-62
2023/04/30 01:36:50;;;;;;;12.70;10.80;;;;;;;12.97;62.60;101044.38;4124256;28;20065;-62
2023/04/30 01:39:10;;;;;;;14.38;10.52;;;;;;;12.99;62.55;101050.47;4120215;28;20049;-62
2023/04/30 01:41:20;;;;;;;15.60;10.43;;;;;;;12.94;62.50;101047.81;4108712;28;20501;-62
2023/04/30 01:43:34;;;;;;;13.73;10.32;;;;;;;12.95;62.47;101046.91;4121642;28;20043;-62
2023/04/30 01:45:52;;;;;;;14.43;9.48;;;;;;;12.93;62.58;101039.06;4122582;28;20452;-62
2023/04/30 01:48:03;;;;;;;12.43;10.10;;;;;;;12.89;62.66;101045.13;4118795;28;20047;-62
2023/04/30 01:50:33;;;;;;;11.73;8.90;;;;;;;12.85;63.21;101043.31;4104588;28;20129;-62
2023/04/30 01:52:46;;;;;;;14.70;9.10;;;;;;;12.84;63.04;101049.38;4105879;28;20463;-62
2023/04/30 01:54:55;;;;;;;12.10;9.52;;;;;;;12.86;62.68;101045.06;4105561;28;20083;-62
2023/04/30 01:57:03;;;;;;;11.23;9.68;;;;;;;12.84;62.63;101052.00;4110701;28;20090;-62
2023/04/30 01:59:08;;;;;;;10.82;8.57;;;;;;;12.77;63.02;101052.75;4115229;28;20050;-62
2023/04/30 02:01:26;;;;;;;11.43;9.50;;;;;;;12.83;63.12;101049.38;4101772;28;20493;-62
2023/04/30 02:03:29;;;;;;;12.38;9.75;;;;;;;12.85;63.32;101045.03;4120043;28;20058;-62
2023/04/30 02:05:32;;;;;;;11.75;9.13;;;;;;;12.81;62.99;101048.50;4124286;28;20030;-62
2023/04/30 02:07:39;;;;;;;11.98;8.60;;;;;;;12.79;62.85;101047.56;4126478;28;20049;-62
2023/04/30 02:09:43;;;;;;;11.57;9.00;;;;;;;12.74;63.25;101048.38;4118345;28;20038;-62
2023/04/30 02:11:45;;;;;;;13.85;9.73;;;;;;;12.75;63.28;101049.28;4099149;28;20130;-62
2023/04/30 02:13:48;;;;;;;12.23;9.32;;;;;;;12.75;63.36;101046.66;4116581;28;20062;-63
2023/04/30 02:15:52;;;;;;;10.50;8.43;;;;;;;12.75;63.70;101047.53;4100549;28;20027;-63
2023/04/30 02:17:55;;;;;;;12.50;9.32;;;;;;;12.79;62.77;101039.75;4106703;28;20039;-63
2023/04/30 02:19:58;;;;;;;10.95;9.13;;;;;;;12.79;63.06;101050.19;4107881;28;20067;-63
2023/04/30 02:22:01;;;;;;;10.93;8.90;;;;;;;12.81;63.17;101049.34;4111170;28;20069;-63
2023/04/30 02:24:05;;;;;;;11.95;9.00;;;;;;;12.88;62.63;101064.25;4101744;28;20050;-62
2023/04/30 02:26:07;;;;;;;14.35;9.90;;;;;;;12.84;62.69;101049.38;4104689;28;20030;-62
2023/04/30 02:28:10;;;;;;;14.38;9.65;;;;;;;12.82;62.74;101048.50;4103613;28;20031;-63
2023/04/30 02:30:13;;;;;;;12.20;10.02;;;;;;;12.80;62.72;101049.34;4121233;28;20038;-63
2023/04/30 02:32:17;;;;;;;11.88;9.48;;;;;;;12.77;62.72;101039.72;4123121;28;20038;-63
2023/04/30 02:34:21;;;;;;;11.35;9.00;;;;;;;12.82;62.59;101043.28;4109482;28;20054;-62
2023/04/30 02:36:23;;;;;;;13.30;9.52;;;;;;;12.79;62.85;101037.13;4089278;28;20042;-62
2023/04/30 02:38:26;;;;;;;12.65;9.18;;;;;;;12.79;62.93;101037.13;4098827;28;20529;-63
2023/04/30 02:40:29;;;;;;;10.15;8.25;;;;;;;12.80;62.82;101038.91;4117244;28;20402;-63
2023/04/30 02:42:32;;;;;;;13.93;10.10;;;;;;;12.80;62.78;101044.13;4120674;28;20053;-63
2023/04/30 02:44:35;;;;;;;11.57;8.82;;;;;;;12.74;62.90;101037.06;4115246;28;20778;-63
2023/04/30 02:46:39;;;;;;;13.57;10.77;;;;;;;12.72;62.80;101044.00;4109014;28;20149;-63
2023/04/30 02:48:43;;;;;;;12.18;10.18;;;;;;;12.78;62.76;101038.00;4127402;28;20046;-63
2023/04/30 02:50:46;;;;;;;10.77;9.15;;;;;;;12.75;62.71;101041.44;4120280;28;20050;-62
2023/04/30 02:52:49;;;;;;;14.23;8.95;;;;;;;12.77;62.79;101042.31;4116924;28;20050;-63
2023/04/30 02:54:52;;;;;;;12.45;9.70;;;;;;;12.80;62.33;101036.28;4119069;28;20515;-63
2023/04/30 02:56:56;;;;;;;13.10;9.65;;;;;;;12.79;62.57;101043.25;4104518;28;20404;-62
2023/04/30 02:58:59;;;;;;;11.50;9.73;;;;;;;12.74;62.48;101035.31;4107302;28;20039;-63
2023/04/30 03:01:01;;;;;;;13.73;9.57;;;;;;;12.69;62.70;101033.53;4109300;28;20077;-63
2023/04/30 03:03:04;;;;;;;15.27;10.35;;;;;;;12.71;62.46;101039.63;4102294;28;20043;-62
2023/04/30 03:05:10;;;;;;;10.85;9.68;;;;;;;12.72;62.42;101046.63;4103009;28;20049;-63
2023/04/30 03:07:13;;;;;;;11.60;9.20;;;;;;;12.60;62.88;101051.63;4106776;28;20042;-62
2023/04/30 03:09:15;;;;;;;11.90;8.95;;;;;;;12.72;62.22;101049.22;4122105;28;20161;-63
2023/04/30 03:11:18;;;;;;;13.27;9.40;;;;;;;12.71;62.36;101042.25;4123081;28;20045;-64
2023/04/30 03:13:21;;;;;;;12.57;9.38;;;;;;;12.66;62.54;101041.28;4123179;28;20042;-63
2023/04/30 03:15:24;;;;;;;10.40;8.60;;;;;;;12.59;62.90;101045.56;4110498;28;20543;-63
2023/04/30 03:17:27;;;;;;;13.23;10.40;;;;;;;12.65;62.78;101050.00;4127186;28;20039;-62
2023/04/30 03:19:30;;;;;;;12.52;10.55;;;;;;;12.70;62.59;101044.00;4116671;28;20039;-63
2023/04/30 03:21:34;;;;;;;11.45;9.45;;;;;;;12.64;62.92;101050.84;4103787;28;20122;-66
2023/04/30 03:23:37;;;;;;;11.63;10.15;;;;;;;12.69;62.49;101041.38;4104927;28;20405;-64
2023/04/30 03:25:40;;;;;;;13.63;9.60;;;;;;;12.70;62.34;101036.16;4125028;28;20101;-63
2023/04/30 03:27:43;;;;;;;12.45;9.88;;;;;;;12.83;61.60;101038.94;4111277;28;20038;-63
2023/04/30 03:29:46;;;;;;;13.38;10.43;;;;;;;12.67;62.30;101033.47;4115082;28;20054;-62
2023/04/30 03:31:49;;;;;;;13.25;9.20;;;;;;;12.70;62.29;101036.16;4102917;28;20039;-63
2023/04/30 03:33:52;;;;;;;12.35;9.40;;;;;;;12.62;62.44;101040.38;4104897;28;20073;-63
2023/04/30 03:35:55;;;;;;;11.35;8.70;;;;;;;12.61;62.52;101040.34;4090964;28;20040;-63
2023/04/30 03:37:59;;;;;;;10.15;8.90;;;;;;;12.68;62.19;101034.38;4133855;28;20505;-64
2023/04/30 03:40:02;;;;;;;12.40;9.88;;;;;;;12.70;61.97;101037.88;4114279;28;20042;-62
2023/04/30 03:42:05;;;;;;;13.80;9.27;;;;;;;12.57;62.51;101045.53;4106340;28;20031;-62
2023/04/30 03:44:14;;;;;;;22.55;10.70;;;;;;;12.58;62.27;101030.75;4114244;28;20515;-62
2023/04/30 03:46:17;;;;;;;13.65;10.13;;;;;;;12.68;61.88;101035.25;4112557;28;20051;-63
2023/04/30 03:48:20;;;;;;;12.57;10.20;;;;;;;12.63;62.26;101030.81;4128597;28;20475;-62
2023/04/30 03:50:23;;;;;;;12.57;9.18;;;;;;;12.51;62.63;101035.00;4129104;28;20051;-62
2023/04/30 03:52:26;;;;;;;13.73;9.60;;;;;;;12.61;62.44;101041.22;4101394;28;20414;-63
2023/04/30 03:54:30;;;;;;;12.07;9.43;;;;;;;12.50;62.20;101038.47;4124522;28;20084;-63
2023/04/30 03:56:33;;;;;;;13.50;9.55;;;;;;;12.57;62.56;101037.69;4106544;28;20130;-63
2023/04/30 03:58:36;;;;;;;12.05;10.40;;;;;;;12.53;62.79;101035.03;4130485;28;20065;-62
2023/04/30 04:00:40;;;;;;;11.55;9.55;;;;;;;12.49;62.91;101028.88;4127264;28;20046;-63
2023/04/30 04:02:43;;;;;;;11.32;9.48;;;;;;;12.60;62.48;101029.06;4106817;28;20138;-62
2023/04/30 04:04:47;;;;;;;13.02;10.02;;;;;;;12.52;62.91;101034.13;4128786;28;20048;-62
2023/04/30 04:06:50;;;;;;;14.05;9.57;;;;;;;12.56;62.50;101032.47;4120248;28;20043;-62
2023/04/30 04:08:53;;;;;;;10.98;9.23;;;;;;;12.54;62.47;101032.44;4125194;28;20043;-62
2023/04/30 04:10:58;;;;;;;13.10;9.90;;;;;;;12.43;63.00;101041.81;4126556;28;20062;-62
2023/04/30 04:13:01;;;;;;;13.32;9.35;;;;;;;12.39;63.00;101038.28;4122881;28;20046;-62
2023/04/30 04:15:05;;;;;;;11.90;10.10;;;;;;;12.60;62.39;101046.41;4128269;28;20034;-62
2023/04/30 04:17:08;;;;;;;12.18;9.80;;;;;;;12.45;62.78;101042.72;4124486;28;20062;-62
2023/04/30 04:19:12;;;;;;;13.35;9.70;;;;;;;12.52;62.41;101039.34;4129096;28;20042;-62
2023/04/30 04:21:15;;;;;;;11.88;10.05;;;;;;;12.51;62.38;101042.84;4107115;28;20140;-62
2023/04/30 04:23:17;;;;;;;11.73;9.48;;;;;;;12.39;63.07;101042.63;4107507;28;20043;-62
2023/04/30 04:25:23;;;;;;;11.48;9.55;;;;;;;12.39;63.01;101042.63;4126305;28;20085;-62
2023/04/30 04:27:28;;;;;;;11.90;9.15;;;;;;;12.40;63.20;101042.66;4119700;28;20039;-62
2023/04/30 04:29:31;;;;;;;11.18;9.43;;;;;;;12.40;63.25;101050.47;4107519;28;20605;-62
2023/04/30 04:31:34;;;;;;;13.30;9.90;;;;;;;12.57;62.13;101050.75;4124770;28;20034;-62
2023/04/30 04:33:37;;;;;;;10.93;9.07;;;;;;;12.38;63.02;101053.91;4126728;28;20145;-62
2023/04/30 04:35:40;;;;;;;12.32;9.68;;;;;;;12.33;63.44;101059.03;4113037;28;20201;-62
2023/04/30 04:37:43;;;;;;;11.15;9.25;;;;;;;12.46;63.23;101060.13;4124974;28;20034;-61
2023/04/30 04:39:46;;;;;;;15.57;11.18;;;;;;;12.49;63.19;101060.16;4121425;28;20039;-62
2023/04/30 04:41:49;;;;;;;12.60;10.27;;;;;;;12.48;63.52;101066.22;4107984;28;20071;-62
2023/04/30 04:43:53;;;;;;;12.93;10.38;;;;;;;12.53;63.09;101066.31;4112180;28;20042;-62
2023/04/30 04:45:56;;;;;;;11.82;9.32;;;;;;;12.48;63.14;101063.63;4109983;28;20143;-62
2023/04/30 04:47:59;;;;;;;14.50;10.27;;;;;;;12.55;63.04;101055.03;4126198;28;20129;-62
2023/04/30 04:50:02;;;;;;;11.57;9.27;;;;;;;12.58;62.75;101060.31;4116122;28;20419;-62
2023/04/30 04:52:05;;;;;;;10.40;8.50;;;;;;;12.55;62.90;101059.41;4124570;28;20409;-62
2023/04/30 04:54:08;;;;;;;11.60;9.98;;;;;;;12.67;62.74;101061.31;4111864;28;20051;-62
2023/04/30 04:56:11;;;;;;;14.18;11.13;;;;;;;12.81;61.85;101059.78;4114049;28;20043;-63
2023/04/30 04:58:14;;;;;;;11.88;9.05;;;;;;;12.71;62.27;101060.50;4111170;28;20129;-62
2023/04/30 05:00:20;;;;;;;11.57;10.38;;;;;;;12.68;62.57;101065.69;4123283;28;20527;-62
2023/04/30 05:02:23;;;;;;;13.73;11.45;;;;;;;12.63;62.89;101059.50;4126295;28;20490;-62
2023/04/30 05:04:27;;;;;;;12.65;9.98;;;;;;;12.69;62.24;101062.22;4112744;28;20077;-62
2023/04/30 05:06:30;;;;;;;14.90;10.52;;;;;;;12.69;61.99;101064.84;4114447;28;20043;-62
2023/04/30 05:08:35;;;;;;;;;;;;;;;12.54;62.47;101066.34;4125718;28;20535;-62
2023/04/30 05:10:38;;;;;;;13.15;10.15;;;;;;;12.74;61.89;101063.16;4171719;22;19940;-60
2023/04/30 05:12:41;;;;;;;13.80;10.55;;;;;;;12.66;62.65;101054.31;4161825;28;20037;-60
2023/04/30 05:14:43;;;;;;;12.00;10.00;;;;;;;12.77;62.12;101057.97;4160808;28;20037;-61
2023/04/30 05:16:48;;;;;;;12.50;9.02;;;;;;;12.63;62.83;101056.91;4158686;28;20090;-61
2023/04/30 05:18:51;;;;;;;;;;;;;;;12.66;62.99;101062.16;4155652;28;20121;-61
2023/04/30 05:20:54;;;;;;;13.32;9.70;;;;;;;12.67;62.18;101062.19;4154591;28;19929;-61
2023/04/30 05:22:56;;;;;;;15.70;10.43;;;;;;;12.73;62.44;101064.00;4155844;28;20044;-61
2023/04/30 05:24:59;;;;;;;14.00;10.43;;;;;;;12.84;61.73;101067.66;4159101;28;20040;-61
2023/04/30 05:27:04;;;;;;;13.50;10.65;;;;;;;12.74;61.90;101071.84;4156646;28;20038;-60
2023/04/30 05:29:07;;;;;;;;;;;;;;;12.85;61.93;101065.91;4137714;28;20499;-61
2023/04/30 05:31:09;;;;;;;15.73;9.85;;;;;;;12.88;61.30;101073.81;4136121;28;19976;-60
2023/04/30 05:33:14;;;;;;;17.73;10.27;;;;;;;12.86;61.46;101071.16;4152011;28;20095;-61
2023/04/30 05:35:17;;;;;;;14.57;10.10;;;;;;;12.84;61.95;101067.66;4158186;28;20041;-60
2023/04/30 05:37:21;;;;;;;10.60;8.68;;;;;;;12.88;61.66;101077.28;4156408;28;20048;-61
2023/04/30 05:39:24;;;;;;;13.02;9.77;;;;;;;12.91;61.60;101059.06;4157005;28;20053;-61
2023/04/30 05:41:27;;;;;;;13.15;10.27;;;;;;;12.91;61.60;101069.50;4156688;28;20041;-61
2023/04/30 05:43:30;;;;;;;12.68;10.40;;;;;;;12.89;61.46;101068.63;4155239;28;20447;-61
2023/04/30 05:45:33;;;;;;;15.43;9.43;;;;;;;13.00;60.61;101070.50;4161543;28;20042;-61
2023/04/30 05:47:36;;;;;;;12.95;9.07;;;;;;;12.86;61.31;101067.69;4158610;28;20041;-60
2023/04/30 05:49:40;;;;;;;12.30;9.15;;;;;;;12.85;61.91;101076.34;4157691;28;20037;-60
2023/04/30 05:51:43;;;;;;;11.55;8.60;;;;;;;12.89;62.37;101076.44;4156326;28;20049;-61
2023/04/30 05:53:46;;;;;;;10.90;8.68;;;;;;;12.92;61.78;101071.25;4132216;28;20052;-60
2023/04/30 05:55:49;;;;;;;12.85;9.32;;;;;;;12.96;61.91;101076.53;4159360;28;20076;-61
2023/04/30 05:57:52;;;;;;;12.45;11.13;;;;;;;12.94;61.85;101073.91;4137133;28;20046;-60
2023/04/30 05:59:55;;;;;;;14.23;9.52;;;;;;;13.01;62.16;101062.69;4158002;28;20045;-61
2023/04/30 06:01:58;;;;;;;14.07;9.70;;;;;;;13.00;61.84;101067.91;4157069;28;20043;-60
2023/04/30 06:04:03;;;;;;;13.93;8.50;;;;;;;13.09;61.38;101074.09;4155712;28;20041;-61
2023/04/30 06:06:07;;;;;;;11.15;8.52;;;;;;;13.07;61.74;101077.56;4144804;28;20033;-61
2023/04/30 06:08:10;;;;;;;12.18;8.98;;;;;;;13.28;60.57;101072.59;4160079;28;20395;-60
2023/04/30 06:10:13;;;;;;;12.95;8.80;;;;;;;13.21;60.81;101067.28;4159153;28;20053;-61
2023/04/30 06:12:16;;;;;;;10.85;9.10;;;;;;;13.21;61.11;101073.38;4155692;28;20068;-60
2023/04/30 06:14:21;;;;;;;12.82;9.55;;;;;;;13.30;59.80;101069.16;4156633;28;20049;-60
2023/04/30 06:16:24;;;;;;;12.48;9.27;;;;;;;13.27;60.06;101072.59;4153897;28;20064;-60
2023/04/30 06:18:27;;;;;;;22.77;9.18;;;;;;;13.30;60.51;101071.75;4155815;28;20037;-60
2023/04/30 06:20:30;;;;;;;12.00;8.52;;;;;;;13.34;59.76;101073.56;4159121;28;20053;-60
2023/04/30 06:22:34;;;;;;;15.45;9.38;;;;;;;13.30;59.35;101058.69;4133886;28;20034;-60
2023/04/30 06:24:37;;;;;;;11.43;8.57;;;;;;;13.23;60.37;101063.84;4137632;28;20582;-60
2023/04/30 06:26:40;;;;;;;10.02;8.32;;;;;;;13.40;59.25;101064.09;4151961;28;20049;-60
2023/04/30 06:28:43;;;;;;;15.30;9.32;;;;;;;13.43;59.06;101065.84;4149547;28;20041;-60
2023/04/30 06:30:46;;;;;;;12.25;8.40;;;;;;;13.43;59.59;101071.09;4159975;28;20037;-61
2023/04/30 06:32:48;;;;;;;11.02;8.55;;;;;;;13.41;59.87;101070.19;4153882;28;20092;-61
2023/04/30 06:34:51;;;;;;;13.70;9.35;;;;;;;13.42;59.95;101066.75;4159202;28;20033;-60
2023/04/30 06:36:54;;;;;;;10.68;8.73;;;;;;;13.56;58.82;101070.38;4156262;28;20042;-60
2023/04/30 06:38:58;;;;;;;12.57;8.73;;;;;;;13.55;60.21;101071.25;4153993;28;20034;-61
2023/04/30 06:41:01;;;;;;;11.73;8.85;;;;;;;13.67;59.42;101078.34;4150319;28;20399;-60
2023/04/30 06:43:04;;;;;;;12.65;8.45;;;;;;;13.74;59.10;101074.03;4152469;28;20045;-61
2023/04/30 06:45:08;;;;;;;10.88;8.45;;;;;;;13.66;59.65;101067.88;4160022;28;20120;-60
2023/04/30 06:47:11;;;;;;;11.40;8.30;;;;;;;13.70;59.85;101075.75;4158952;28;20084;-61
2023/04/30 06:49:14;;;;;;;11.30;7.97;;;;;;;13.83;59.55;101074.16;4154009;28;20073;-60
2023/04/30 06:51:16;;;;;;;11.15;7.72;;;;;;;13.77;60.02;101081.94;4153197;28;20107;-60
2023/04/30 06:53:19;;;;;;;12.43;7.90;;;;;;;14.07;56.64;101070.91;4151172;28;20400;-60
2023/04/30 06:55:24;;;;;;;11.00;7.65;;;;;;;13.96;57.53;101081.28;4154048;28;20044;-61
2023/04/30 06:57:27;;;;;;;10.75;7.90;;;;;;;14.07;56.57;101076.13;4159042;28;20132;-60
2023/04/30 06:59:30;;;;;;;12.05;8.18;;;;;;;14.10;56.29;101073.56;4159669;28;20044;-60
2023/04/30 07:01:32;;;;;;;11.63;7.85;;;;;;;14.05;56.48;101077.88;4156810;28;20037;-60
2023/04/30 07:03:36;;;;;;;8.95;6.82;;;;;;;14.04;57.59;101075.25;4154876;28;20053;-61
2023/04/30 07:05:38;;;;;;;14.35;8.10;;;;;;;14.11;56.69;101071.84;4134017;28;21165;-61
2023/04/30 07:07:41;;;;;;;12.23;6.90;;;;;;;14.12;57.14;101073.59;4138016;28;20451;-60
2023/04/30 07:09:44;;;;;;;12.35;7.30;;;;;;;14.07;57.15;101068.28;4155627;28;20025;-60
2023/04/30 07:11:49;;;;;;;11.13;7.05;;;;;;;14.14;56.94;101072.72;4144037;28;20042;-60
2023/04/30 07:13:52;;;;;;;10.80;7.88;;;;;;;14.28;56.14;101069.34;4140987;28;20570;-60
2023/04/30 07:15:55;;;;;;;11.13;7.78;;;;;;;14.39;55.69;101072.94;4164480;28;20454;-60
2023/04/30 07:17:58;;;;;;;9.40;7.88;;;;;;;14.46;55.79;101071.25;4164164;28;20041;-60
2023/04/30 07:20:01;;;;;;;9.13;6.28;;;;;;;14.47;56.07;101070.38;4147504;28;20042;-61
2023/04/30 07:22:04;;;;;;;11.95;7.80;;;;;;;14.61;55.19;101065.28;4164784;28;20041;-60
2023/04/30 07:24:07;;;;;;;10.70;7.35;;;;;;;14.51;55.71;101074.78;4164999;28;20045;-61
2023/04/30 07:26:10;;;;;;;10.43;6.80;;;;;;;14.49;55.93;101076.53;4164714;28;20129;-60
2023/04/30 07:28:14;;;;;;;10.73;7.35;;;;;;;14.64;55.93;101070.56;4162336;28;20095;-61
2023/04/30 07:30:17;;;;;;;13.10;8.20;;;;;;;14.93;53.71;101067.25;4157342;28;20120;-64
2023/04/30 07:32:20;;;;;;;10.52;7.03;;;;;;;14.92;53.92;101070.72;4139909;28;20045;-62
2023/04/30 07:34:23;;;;;;;10.70;7.68;;;;;;;14.93;53.98;101068.13;4158161;28;20038;-62
2023/04/30 07:36:26;;;;;;;10.40;7.97;;;;;;;15.04;54.17;101075.16;4138451;28;20042;-64
2023/04/30 07:38:29;;;;;;;7.63;6.10;;;;;;;15.28;53.18;101074.44;4129580;28;20105;-62
2023/04/30 07:40:32;;;;;;;11.68;7.30;;;;;;;15.29;52.61;101069.19;4160026;28;20078;-60
2023/04/30 07:42:38;;;;;;;10.77;6.97;;;;;;;15.35;52.71;101066.59;4159466;28;20041;-60
2023/04/30 07:44:42;;;;;;;9.15;7.40;;;;;;;15.36;52.70;101064.84;4159326;28;20128;-62
2023/04/30 07:46:45;;;;;;;12.65;6.75;;;;;;;15.38;52.74;101070.13;4158234;28;20559;-64
2023/04/30 07:48:48;;;;;;;8.73;6.82;;;;;;;15.41;52.32;101068.38;4145717;28;20125;-61
2023/04/30 07:50:51;;;;;;;8.48;6.05;;;;;;;15.40;53.77;101056.13;4145611;28;20052;-61
2023/04/30 07:52:54;;;;;;;7.82;5.90;;;;;;;15.52;53.32;101060.53;4158594;28;20041;-62
2023/04/30 07:54:57;;;;;;;9.40;5.85;;;;;;;15.66;51.41;101052.72;4161463;28;20041;-62
2023/04/30 07:57:00;;;;;;;6.63;4.93;;;;;;;15.55;52.10;101057.97;4163043;28;20041;-64
2023/04/30 07:59:03;;;;;;;9.63;5.55;;;;;;;15.75;51.61;101070.22;4157657;28;20404;-61
2023/04/30 08:01:07;;;;;;;7.93;5.50;;;;;;;15.96;48.81;101057.22;4135390;28;20045;-61
2023/04/30 08:03:11;;;;;;;7.88;5.35;;;;;;;15.77;51.08;101066.75;4143897;28;20038;-61
2023/04/30 08:05:14;;;;;;;9.63;5.40;;;;;;;15.95;49.35;101063.31;4161219;28;20652;-61
2023/04/30 08:07:17;;;;;;;7.30;4.22;;;;;;;15.98;49.89;101065.94;4160606;28;20037;-61
2023/04/30 08:09:20;;;;;;;10.48;5.60;;;;;;;16.10;50.05;101066.84;4157125;28;20033;-59
2023/04/30 08:11:22;;;;;;;9.30;5.38;;;;;;;16.39;48.04;101064.22;4144269;28;20209;-59
2023/04/30 08:13:25;;;;;;;7.43;4.63;;;;;;;16.32;47.75;101060.72;4135208;28;20068;-59
2023/04/30 08:15:28;;;;;;;11.95;5.00;;;;;;;16.42;47.49;101055.50;4153889;28;20033;-59
2023/04/30 08:17:34;;;;;;;8.17;5.07;;;;;;;16.48;47.01;101056.34;4163055;28;20037;-59
2023/04/30 08:19:37;;;;;;;9.38;4.57;;;;;;;16.25;48.74;101053.72;4130023;28;20035;-59
2023/04/30 08:21:40;;;;;;;11.18;5.50;;;;;;;16.40;48.84;101056.34;4160266;28;20040;-59
2023/04/30 08:23:43;;;;;;;7.28;5.25;;;;;;;16.45;48.19;101058.09;4163545;28;20091;-59
2023/04/30 08:25:46;;;;;;;10.02;5.50;;;;;;;16.48;48.08;101050.22;4144809;28;20118;-58
2023/04/30 08:27:49;;;;;;;6.50;4.50;;;;;;;16.40;48.69;101064.22;4164003;28;20037;-59
2023/04/30 08:29:52;;;;;;;8.68;5.00;;;;;;;16.52;48.37;101060.72;4162550;28;20037;-59
2023/04/30 08:31:55;;;;;;;7.47;4.82;;;;;;;16.48;48.15;101063.34;4160619;28;20050;-58
2023/04/30 08:33:59;;;;;;;13.45;5.80;;;;;;;16.26;48.46;101058.09;4163309;28;20037;-59
2023/04/30 08:36:02;;;;;;;8.75;4.43;;;;;;;16.22;48.58;101059.88;4163366;28;20053;-59
2023/04/30 08:38:05;;;;;;;8.48;4.47;;;;;;;16.34;48.84;101059.00;4160070;28;20045;-58
2023/04/30 08:40:10;;;;;;;7.25;4.95;;;;;;;16.62;48.93;101052.81;4160430;28;20041;-59
2023/04/30 08:42:15;;;;;;;9.40;5.40;;;;;;;16.80;47.08;101058.06;4132364;28;20045;-59
2023/04/30 08:44:21;;;;;;;10.45;5.90;;;;;;;16.49;47.51;101063.34;4143054;28;20080;-58
2023/04/30 08:46:25;;;;;;;11.35;6.53;;;;;;;16.32;48.52;101067.72;4146146;28;20041;-59
2023/04/30 08:48:30;;;;;;;11.98;6.70;;;;;;;16.28;47.78;101061.63;4162646;28;20134;-59
2023/04/30 08:50:34;;;;;;;;;;;;;;;15.98;47.76;101058.06;4164205;28;20507;-59
2023/04/30 08:52:40;;;;;;;18.27;14.07;;;;;;;16.06;47.32;101063.31;4129444;28;19922;-59
2023/04/30 08:54:44;;;;;;;13.30;7.93;;;;;;;16.26;47.36;101068.59;4162102;28;20037;-59
2023/04/30 08:56:47;;;;;;;17.20;10.68;;;;;;;16.40;46.61;101055.50;4163372;28;20059;-59
2023/04/30 08:58:50;;;;;;;10.45;5.45;;;;;;;16.35;47.22;101067.72;4145838;28;20038;-59
2023/04/30 09:00:53;;;;;;;11.13;6.75;;;;;;;16.32;47.16;101063.34;4161901;28;20041;-59
2023/04/30 09:02:56;;;;;;;10.18;4.75;;;;;;;16.58;47.37;101058.09;4141928;28;20046;-59
2023/04/30 09:04:59;;;;;;;6.53;3.78;;;;;;;16.58;46.60;101059.84;4144278;28;20510;-59
2023/04/30 09:07:03;;;;;;;6.03;3.35;;;;;;;16.54;45.47;101060.72;4161528;28;20100;-59
2023/04/30 09:09:10;;;;;;;7.82;3.88;;;;;;;16.65;44.80;101055.47;4155885;28;20041;-59
2023/04/30 09:11:24;;;;;;;5.35;3.35;;;;;;;16.66;46.34;101060.72;4137650;28;20476;-59
2023/04/30 09:13:40;;;;;;;6.43;3.50;;;;;;;16.72;46.73;101057.22;4144353;28;20453;-59
2023/04/30 09:15:44;;;;;;;4.75;3.10;;;;;;;16.71;44.71;101051.06;4159439;28;20065;-60
2023/04/30 09:17:47;;;;;;;4.95;2.88;;;;;;;16.52;45.68;101044.09;4162057;28;20497;-59
2023/04/30 09:19:50;;;;;;;6.35;3.53;;;;;;;16.48;45.56;101052.84;4163656;28;20495;-59
2023/04/30 09:21:54;;;;;;;9.85;3.67;;;;;;;16.63;44.54;101049.34;4129487;28;20050;-59
2023/04/30 09:24:00;;;;;;;6.80;3.65;;;;;;;16.67;44.65;101046.69;4147935;28;20515;-59
2023/04/30 09:26:03;;;;;;;8.10;3.53;;;;;;;16.69;43.55;101047.59;4164135;28;20499;-59
2023/04/30 09:28:10;;;;;;;6.63;2.90;;;;;;;16.49;44.29;101047.59;4164739;28;20423;-58
2023/04/30 09:30:31;;;;;;;5.35;3.13;;;;;;;16.49;45.87;101052.00;4161211;28;20065;-57